Time;durP1;ratioP1;P1;durP2;ratioP2;P2;SDS_P1;SDS_P2;PMS_P1;PMS_P2;Temp;Humidity;BMP_temperature;BMP_pressure;BME280_temperature;BME280_humidity;BME280_pressure;Samples;Min_cycle;Max_cycle;Signal;HPM_P1;HPM_P2
2021/12/01 02:42:21;;;;;;;3.80;1.70;;;5.40;99.90;;;;;;5227689;23;20248;-92
2021/12/01 02:44:48;;;;;;;3.87;1.50;;;5.40;99.90;;;;;;4921324;29;20197;-93
2021/12/01 02:47:14;;;;;;;6.63;1.93;;;5.40;99.90;;;;;;4921332;29;20201;-92
2021/12/01 02:49:40;;;;;;;8.40;1.70;;;5.40;99.90;;;;;;4921291;29;20270;-93
2021/12/01 02:52:13;;;;;;;4.00;1.53;;;5.40;99.90;;;;;;4921269;29;20186;-94
2021/12/01 02:54:39;;;;;;;3.40;1.63;;;5.40;99.90;;;;;;4921290;29;20189;-93
2021/12/01 02:57:05;;;;;;;5.93;1.60;;;5.50;99.90;;;;;;4920960;29;20220;-92
2021/12/01 02:59:31;;;;;;;4.60;1.67;;;5.40;99.90;;;;;;4921253;29;20190;-92
2021/12/01 03:01:59;;;;;;;2.47;1.40;;;5.40;99.90;;;;;;4921262;29;20210;-93
2021/12/01 03:04:24;;;;;;;5.40;2.00;;;5.40;99.90;;;;;;4921093;29;20229;-92
2021/12/01 03:06:50;;;;;;;3.00;1.20;;;5.50;99.90;;;;;;4921154;29;20190;-92
2021/12/01 03:09:16;;;;;;;3.57;1.50;;;5.50;99.90;;;;;;4920999;29;20205;-91
2021/12/01 03:11:43;;;;;;;3.53;1.30;;;5.50;99.90;;;;;;4920756;29;20252;-92
2021/12/01 03:14:12;;;;;;;3.67;1.50;;;5.50;99.90;;;;;;4921039;29;20576;-92
2021/12/01 03:16:38;;;;;;;3.93;1.33;;;5.50;99.90;;;;;;4920873;29;20225;-93
2021/12/01 03:19:04;;;;;;;2.70;1.10;;;5.50;99.90;;;;;;4921278;29;20190;-92
2021/12/01 03:21:36;;;;;;;2.57;1.03;;;5.50;99.90;;;;;;4921054;29;20194;-92
2021/12/01 03:24:03;;;;;;;3.57;1.13;;;5.60;99.90;;;;;;4922073;29;20182;-91
2021/12/01 03:26:30;;;;;;;2.23;1.07;;;5.60;99.90;;;;;;4925103;29;20189;-92
2021/12/01 03:28:57;;;;;;;2.77;1.00;;;5.50;99.90;;;;;;4924956;29;20210;-92
2021/12/01 03:31:23;;;;;;;2.83;1.10;;;5.50;99.90;;;;;;4925061;29;20200;-92
2021/12/01 03:33:50;;;;;;;3.43;1.03;;;5.60;99.90;;;;;;4925177;29;20208;-92
2021/12/01 03:36:16;;;;;;;2.17;0.80;;;5.60;99.90;;;;;;4924799;29;20194;-93
2021/12/01 03:38:42;;;;;;;2.60;1.00;;;5.60;99.90;;;;;;4924668;29;20212;-92
2021/12/01 03:41:07;;;;;;;1.50;0.70;;;5.60;99.90;;;;;;4924088;29;20241;-92
2021/12/01 03:43:42;;;;;;;1.23;0.70;;;5.70;99.90;;;;;;4924638;29;20186;-92
2021/12/01 03:46:08;;;;;;;0.80;0.50;;;5.70;99.90;;;;;;4924596;29;20659;-92
2021/12/01 03:48:34;;;;;;;3.03;0.67;;;5.80;99.90;;;;;;4941450;29;20190;-92
2021/12/01 03:51:00;;;;;;;2.23;0.73;;;5.80;99.90;;;;;;4924441;29;20229;-92
2021/12/01 03:53:30;;;;;;;1.77;1.00;;;5.90;99.90;;;;;;4924357;29;20601;-92
2021/12/01 03:55:56;;;;;;;1.47;0.50;;;6.00;99.90;;;;;;4923733;29;20189;-91
2021/12/01 03:58:21;;;;;;;1.67;0.60;;;6.10;99.90;;;;;;4924531;29;20190;-92
2021/12/01 04:00:47;;;;;;;0.83;0.50;;;6.10;99.90;;;;;;4924343;29;20621;-91
2021/12/01 04:03:27;;;;;;;1.13;0.50;;;6.00;99.90;;;;;;4924205;29;20198;-93
2021/12/01 04:05:53;;;;;;;1.37;0.57;;;6.10;99.90;;;;;;4924200;29;20178;-92
2021/12/01 04:08:19;;;;;;;0.67;0.47;;;6.20;99.90;;;;;;4924263;29;20186;-93
2021/12/01 04:10:45;;;;;;;1.13;0.70;;;6.20;99.90;;;;;;4923976;29;20222;-92
2021/12/01 04:13:13;;;;;;;2.43;0.80;;;6.20;99.90;;;;;;4923212;29;20190;-91
2021/12/01 04:15:38;;;;;;;1.53;0.70;;;6.20;99.90;;;;;;4923962;29;20626;-92
2021/12/01 04:18:04;;;;;;;1.10;0.70;;;6.20;99.90;;;;;;4923959;29;20232;-92
2021/12/01 04:20:30;;;;;;;1.63;0.60;;;6.20;99.90;;;;;;4923999;29;20181;-93
2021/12/01 04:22:56;;;;;;;0.90;0.60;;;6.30;99.90;;;;;;4924289;29;20190;-92
2021/12/01 04:25:22;;;;;;;1.83;0.93;;;6.30;99.90;;;;;;4923887;29;20214;-92
2021/12/01 04:27:48;;;;;;;2.07;0.90;;;6.40;99.90;;;;;;4923527;29;20202;-92
2021/12/01 04:30:16;;;;;;;1.23;0.80;;;6.40;99.90;;;;;;4923690;29;20229;-91
2021/12/01 04:32:42;;;;;;;2.03;0.90;;;6.40;99.90;;;;;;4923955;29;20186;-92
2021/12/01 04:35:08;;;;;;;1.33;0.80;;;6.50;99.90;;;;;;4940140;29;20264;-93
2021/12/01 04:37:35;;;;;;;1.33;0.93;;;6.40;99.90;;;;;;4923095;29;20271;-92
2021/12/01 04:40:01;;;;;;;3.37;1.13;;;6.50;99.90;;;;;;4923389;29;20535;-95
2021/12/01 04:42:27;;;;;;;2.73;1.10;;;6.50;99.90;;;;;;4923313;29;20237;-95
2021/12/01 04:44:55;;;;;;;2.07;1.20;;;6.60;99.90;;;;;;4923345;29;20197;-95
2021/12/01 04:47:28;;;;;;;1.70;1.10;;;6.60;99.90;;;;;;4923541;29;20186;-95
2021/12/01 04:49:55;;;;;;;4.57;1.33;;;6.60;99.90;;;;;;4923529;29;20217;-95
2021/12/01 04:52:20;;;;;;;2.90;1.17;;;6.50;99.90;;;;;;4923444;29;20280;-95
2021/12/01 04:54:51;;;;;;;1.60;1.13;;;6.50;99.90;;;;;;4923433;29;20640;-93
2021/12/01 04:57:17;;;;;;;1.80;1.03;;;6.50;99.90;;;;;;4923121;29;20182;-94
2021/12/01 04:59:44;;;;;;;3.67;1.57;;;6.50;99.90;;;;;;4923242;29;20220;-94
2021/12/01 05:02:09;;;;;;;3.30;1.60;;;6.60;99.90;;;;;;4923390;29;20738;-95
2021/12/01 05:04:35;;;;;;;2.60;1.30;;;6.70;99.90;;;;;;4923293;29;20230;-94
2021/12/01 05:07:01;;;;;;;1.90;1.23;;;6.70;99.90;;;;;;4923115;29;20194;-94
2021/12/01 05:09:27;;;;;;;1.03;0.93;;;6.70;99.90;;;;;;4923270;29;20209;-94
2021/12/01 05:11:52;;;;;;;1.17;0.90;;;6.80;99.90;;;;;;4922969;29;20238;-94
2021/12/01 05:14:20;;;;;;;2.40;1.20;;;6.90;99.90;;;;;;4923147;29;20190;-94
2021/12/01 05:16:46;;;;;;;1.47;1.20;;;6.90;99.90;;;;;;4922640;29;20212;-92
2021/12/01 05:19:11;;;;;;;4.80;1.30;;;6.90;99.90;;;;;;4923001;29;20190;-94
2021/12/01 05:21:39;;;;;;;1.60;1.50;;;7.00;99.90;;;;;;4922886;29;20240;-94
2021/12/01 05:24:09;;;;;;;2.20;1.70;;;7.00;99.90;;;;;;4922769;29;20225;-95
2021/12/01 05:26:36;;;;;;;2.10;1.50;;;7.10;99.90;;;;;;4922394;29;20186;-94
2021/12/01 05:29:03;;;;;;;1.90;1.60;;;7.10;99.90;;;;;;4922712;29;20212;-95
2021/12/01 05:31:29;;;;;;;2.00;1.60;;;7.10;99.90;;;;;;4922718;29;20190;-93
2021/12/01 05:33:57;;;;;;;2.30;2.10;;;7.10;99.90;;;;;;4922649;29;20281;-95
2021/12/01 05:36:23;;;;;;;3.20;1.40;;;7.10;99.90;;;;;;4922728;29;20178;-95
2021/12/01 05:38:49;;;;;;;2.03;1.60;;;7.10;99.90;;;;;;4922524;29;20213;-95
2021/12/01 05:41:15;;;;;;;2.20;1.80;;;7.10;99.90;;;;;;4922414;29;20687;-94
2021/12/01 05:43:41;;;;;;;8.13;1.60;;;7.10;99.90;;;;;;4922508;29;20194;-95
2021/12/01 05:46:07;;;;;;;1.57;1.47;;;7.10;99.90;;;;;;4922749;29;20194;-94
2021/12/01 05:48:33;;;;;;;2.97;1.67;;;7.10;99.90;;;;;;4922113;29;20537;-94
2021/12/01 05:50:58;;;;;;;1.70;1.60;;;7.10;99.90;;;;;;4922427;29;20194;-95
2021/12/01 05:53:24;;;;;;;1.60;1.50;;;7.20;99.90;;;;;;4922373;29;20190;-95
2021/12/01 05:55:51;;;;;;;3.60;1.90;;;7.10;99.90;;;;;;4922166;29;20213;-94
2021/12/01 05:58:17;;;;;;;3.03;1.70;;;7.10;99.90;;;;;;4921768;29;20186;-93
2021/12/01 06:00:43;;;;;;;2.70;1.60;;;7.20;99.90;;;;;;4921908;29;20205;-92
2021/12/01 06:03:09;;;;;;;2.30;1.50;;;7.20;99.90;;;;;;4922136;29;20272;-94
2021/12/01 06:05:43;;;;;;;2.70;1.40;;;7.20;99.90;;;;;;4921652;29;20225;-93
2021/12/01 06:08:09;;;;;;;1.13;1.03;;;7.20;99.90;;;;;;4921743;29;20196;-94
2021/12/01 06:10:35;;;;;;;4.70;1.63;;;7.30;99.90;;;;;;4922443;29;20222;-95
2021/12/01 06:13:01;;;;;;;1.30;1.20;;;7.30;99.90;;;;;;4923730;29;20190;-96
2021/12/01 06:15:35;;;;;;;1.20;1.10;;;7.30;99.90;;;;;;4922737;29;20193;-94
2021/12/01 06:18:01;;;;;;;2.10;0.80;;;7.30;99.90;;;;;;4921623;29;20634;-95
2021/12/01 06:20:27;;;;;;;3.43;1.00;;;7.30;99.90;;;;;;4928601;29;20283;-94
2021/12/01 06:22:53;;;;;;;1.03;0.90;;;7.30;99.90;;;;;;4923161;29;20249;-95
2021/12/01 06:25:24;;;;;;;0.80;0.80;;;7.40;99.90;;;;;;4923410;29;20222;-94
2021/12/01 06:27:50;;;;;;;2.43;0.90;;;7.40;99.90;;;;;;4922441;29;20186;-94
2021/12/01 06:30:16;;;;;;;2.77;1.00;;;7.30;99.90;;;;;;4923274;29;20225;-95
2021/12/01 06:32:42;;;;;;;7.73;1.10;;;7.40;99.90;;;;;;4919664;29;20202;-95
2021/12/01 06:35:12;;;;;;;1.83;0.80;;;7.40;99.90;;;;;;4921931;29;20190;-95
2021/12/01 06:37:37;;;;;;;3.40;1.00;;;7.40;99.90;;;;;;4921932;29;20197;-95
2021/12/01 06:40:05;;;;;;;0.70;0.70;;;7.40;99.90;;;;;;4921979;29;20219;-95
2021/12/01 06:42:30;;;;;;;2.20;0.80;;;7.40;99.90;;;;;;4907269;29;20806;-96
2021/12/01 06:45:11;;;;;;;1.63;0.80;;;7.40;99.90;;;;;;4902484;29;20227;-94
2021/12/01 06:47:39;;;;;;;4.80;0.90;;;7.40;99.90;;;;;;4902972;29;20190;-94
2021/12/01 06:50:06;;;;;;;1.20;0.93;;;7.50;99.90;;;;;;4902073;29;20293;-94
2021/12/01 06:52:32;;;;;;;0.60;0.60;;;7.50;99.90;;;;;;4902917;29;20281;-92
2021/12/01 06:54:59;;;;;;;0.57;0.57;;;7.40;99.90;;;;;;4902688;29;20190;-95
2021/12/01 06:57:25;;;;;;;2.20;0.60;;;7.40;99.90;;;;;;4903098;29;20202;-95
2021/12/01 06:59:51;;;;;;;0.90;0.70;;;7.50;99.90;;;;;;4901291;29;20194;-94
2021/12/01 07:02:17;;;;;;;2.30;0.70;;;7.40;99.90;;;;;;4901946;29;20293;-92
2021/12/01 07:04:44;;;;;;;0.90;0.80;;;7.40;99.90;;;;;;4902574;29;20190;-92
2021/12/01 07:07:10;;;;;;;1.00;0.90;;;7.40;99.90;;;;;;4904818;29;20183;-95
2021/12/01 07:09:36;;;;;;;1.13;0.70;;;7.50;99.90;;;;;;4888491;29;20254;-95
2021/12/01 07:12:02;;;;;;;1.97;0.80;;;7.50;99.90;;;;;;4903184;29;20202;-94
2021/12/01 07:14:28;;;;;;;1.00;0.70;;;7.50;99.90;;;;;;4902312;29;20186;-94
2021/12/01 07:16:55;;;;;;;1.00;0.80;;;7.50;99.90;;;;;;4902463;29;20195;-94
2021/12/01 07:19:21;;;;;;;1.30;1.00;;;7.50;99.90;;;;;;4902313;29;20191;-93
2021/12/01 07:21:47;;;;;;;1.50;0.80;;;7.50;99.90;;;;;;4902537;29;20217;-90
2021/12/01 07:24:15;;;;;;;1.97;0.77;;;7.50;99.90;;;;;;4902089;29;20226;-93
2021/12/01 07:26:49;;;;;;;1.47;0.80;;;7.40;99.90;;;;;;4901950;29;20275;-91
2021/12/01 07:29:17;;;;;;;2.07;0.87;;;7.50;99.90;;;;;;4901942;29;20269;-94
2021/12/01 07:31:43;;;;;;;0.87;0.70;;;7.50;99.90;;;;;;4902034;29;20659;-93
2021/12/01 07:34:09;;;;;;;0.73;0.70;;;7.50;99.90;;;;;;4902317;29;20195;-92
2021/12/01 07:36:39;;;;;;;0.70;0.70;;;7.50;99.90;;;;;;4902490;29;20618;-93
2021/12/01 07:39:05;;;;;;;2.33;0.90;;;7.50;99.90;;;;;;4902200;29;20193;-93
2021/12/01 07:41:31;;;;;;;1.10;0.90;;;7.50;99.90;;;;;;4901659;29;20226;-91
2021/12/01 07:43:56;;;;;;;0.70;0.70;;;7.50;99.90;;;;;;4901648;29;20638;-93
2021/12/01 07:46:24;;;;;;;0.90;0.77;;;7.50;99.90;;;;;;4901500;29;20187;-94
2021/12/01 07:48:50;;;;;;;1.40;0.80;;;7.50;99.90;;;;;;4902642;29;20218;-93
2021/12/01 07:51:16;;;;;;;0.60;0.60;;;7.50;99.90;;;;;;4901487;29;20198;-93
2021/12/01 07:53:42;;;;;;;0.70;0.70;;;7.60;99.90;;;;;;4902008;29;20623;-93
2021/12/01 07:56:13;;;;;;;1.00;0.90;;;7.60;99.90;;;;;;4901984;29;20672;-92
2021/12/01 07:58:39;;;;;;;0.80;0.80;;;7.50;99.90;;;;;;4901779;29;20638;-91
2021/12/01 08:01:05;;;;;;;1.23;0.70;;;7.50;99.90;;;;;;4901967;29;20194;-92
2021/12/01 08:03:30;;;;;;;0.73;0.73;;;7.50;99.90;;;;;;4901234;29;20195;-93
2021/12/01 08:06:02;;;;;;;0.80;0.80;;;7.50;99.90;;;;;;4903976;29;20195;-94
2021/12/01 08:08:29;;;;;;;1.10;0.80;;;7.50;99.90;;;;;;4910914;29;20187;-94
2021/12/01 08:10:55;;;;;;;0.93;0.80;;;7.50;99.90;;;;;;4906601;29;20229;-91
2021/12/01 08:13:21;;;;;;;1.13;0.83;;;7.60;99.90;;;;;;4905201;29;20190;-93
2021/12/01 08:15:47;;;;;;;1.00;0.90;;;7.50;99.90;;;;;;4905182;29;20645;-93
2021/12/01 08:18:14;;;;;;;1.20;0.80;;;7.50;99.90;;;;;;4904911;29;20573;-92
2021/12/01 08:20:40;;;;;;;1.00;0.80;;;7.50;99.90;;;;;;4905190;29;20190;-94
2021/12/01 08:23:06;;;;;;;1.77;0.80;;;7.50;99.90;;;;;;4906628;29;20206;-94
2021/12/01 08:25:54;;;;;;;1.00;0.90;;;7.60;99.90;;;;;;4905216;29;20612;-93
2021/12/01 08:28:20;;;;;;;3.77;1.10;;;7.60;99.90;;;;;;4905593;29;20278;-92
2021/12/01 08:30:47;;;;;;;2.27;1.03;;;7.60;99.90;;;;;;4904850;29;20318;-95
2021/12/01 08:33:13;;;;;;;2.10;1.10;;;7.60;99.90;;;;;;4904794;29;20700;-94
2021/12/01 08:35:48;;;;;;;2.40;1.20;;;7.60;99.90;;;;;;4906363;29;20195;-93
2021/12/01 08:38:14;;;;;;;1.53;0.80;;;7.60;99.90;;;;;;4905431;29;20524;-94
2021/12/01 08:40:40;;;;;;;1.10;1.00;;;7.60;99.90;;;;;;4905450;29;20190;-95
2021/12/01 08:43:06;;;;;;;2.13;1.30;;;7.70;99.90;;;;;;4923879;29;20269;-93
2021/12/01 08:45:33;;;;;;;1.10;0.97;;;7.70;99.90;;;;;;4940904;29;20186;-93
2021/12/01 08:47:59;;;;;;;1.40;1.23;;;7.70;99.90;;;;;;4923772;29;20194;-96
2021/12/01 08:50:24;;;;;;;1.87;1.23;;;7.60;99.90;;;;;;4915170;29;20262;-94
2021/12/01 08:52:50;;;;;;;1.77;1.10;;;7.60;99.90;;;;;;4923690;29;20221;-95
2021/12/01 08:55:17;;;;;;;1.30;1.20;;;7.60;99.90;;;;;;4923382;29;20205;-95
2021/12/01 08:57:43;;;;;;;2.03;1.47;;;7.60;99.90;;;;;;4923922;29;20198;-94
2021/12/01 09:00:10;;;;;;;1.40;1.30;;;7.70;99.90;;;;;;4923347;29;20194;-94
2021/12/01 09:02:35;;;;;;;1.87;1.10;;;7.70;99.90;;;;;;4922725;29;20197;-92
2021/12/01 09:05:02;;;;;;;3.70;1.30;;;7.70;99.90;;;;;;4923238;29;20194;-94
2021/12/01 09:07:28;;;;;;;2.47;1.10;;;7.70;99.90;;;;;;4905515;29;20566;-92
2021/12/01 09:09:54;;;;;;;1.23;0.90;;;7.70;99.90;;;;;;4919958;29;20226;-91
2021/12/01 09:12:21;;;;;;;1.93;1.00;;;7.70;99.90;;;;;;4916742;29;20201;-90
2021/12/01 09:14:47;;;;;;;1.30;1.10;;;7.60;99.90;;;;;;4924396;29;20609;-94
2021/12/01 09:17:18;;;;;;;2.17;1.10;;;7.60;99.90;;;;;;4923535;29;20190;-93
2021/12/01 09:19:44;;;;;;;1.37;0.93;;;7.60;99.90;;;;;;4926957;29;20190;-94
2021/12/01 09:22:10;;;;;;;0.90;0.70;;;7.60;99.90;;;;;;4924808;29;20197;-94
2021/12/01 09:24:37;;;;;;;1.00;0.90;;;7.60;99.90;;;;;;4924993;29;20625;-94
2021/12/01 09:27:05;;;;;;;1.07;0.97;;;7.60;99.90;;;;;;4925265;29;20637;-93
2021/12/01 09:29:31;;;;;;;1.33;0.90;;;7.60;99.90;;;;;;4923331;29;20229;-92
2021/12/01 09:31:58;;;;;;;2.03;0.80;;;7.60;99.90;;;;;;4922465;29;20540;-90
2021/12/01 09:34:25;;;;;;;1.80;1.00;;;7.50;99.90;;;;;;4922449;29;20194;-93
2021/12/01 09:36:52;;;;;;;0.80;0.80;;;7.50;99.90;;;;;;4923527;29;20273;-93
2021/12/01 09:39:18;;;;;;;0.97;0.80;;;7.60;99.90;;;;;;4923689;29;20186;-94
2021/12/01 09:41:45;;;;;;;1.80;0.87;;;7.50;99.90;;;;;;4922875;29;20236;-92
2021/12/01 09:44:11;;;;;;;0.90;0.73;;;7.50;99.90;;;;;;4923332;29;20617;-93
2021/12/01 09:46:37;;;;;;;0.73;0.70;;;7.50;99.90;;;;;;4923106;29;20203;-96
2021/12/01 09:49:03;;;;;;;1.47;0.80;;;7.50;99.90;;;;;;4923649;29;20273;-92
2021/12/01 09:51:28;;;;;;;3.07;0.70;;;7.60;99.90;;;;;;4922960;29;20264;-93
2021/12/01 09:53:55;;;;;;;0.63;0.50;;;7.50;99.90;;;;;;4923368;29;20536;-93
2021/12/01 09:56:21;;;;;;;1.00;0.80;;;7.50;99.90;;;;;;4922960;29;20229;-94
2021/12/01 09:58:56;;;;;;;0.90;0.60;;;7.60;99.90;;;;;;4922273;29;20257;-93
2021/12/01 10:01:23;;;;;;;0.80;0.67;;;7.60;99.90;;;;;;4924273;29;20700;-92
2021/12/01 10:03:49;;;;;;;1.73;0.70;;;7.60;99.90;;;;;;4924235;29;20217;-93
2021/12/01 10:06:18;;;;;;;3.70;0.60;;;7.60;99.90;;;;;;4922980;29;20198;-92
2021/12/01 10:08:49;;;;;;;1.23;0.70;;;7.60;99.90;;;;;;4922474;29;20186;-93
2021/12/01 10:11:19;;;;;;;3.03;0.70;;;7.60;99.90;;;;;;4923618;29;20276;-92
2021/12/01 10:13:49;;;;;;;0.70;0.63;;;7.60;99.90;;;;;;4923717;29;20532;-94
2021/12/01 10:16:16;;;;;;;1.40;0.73;;;7.70;99.90;;;;;;4922381;29;20665;-92
2021/12/01 10:19:08;;;;;;;0.73;0.60;;;7.70;99.90;;;;;;4939092;29;20186;-92
2021/12/01 10:21:39;;;;;;;1.70;0.70;;;7.70;99.90;;;;;;4922884;29;20179;-92
2021/12/01 10:24:12;;;;;;;0.90;0.70;;;7.70;99.90;;;;;;4925449;29;20205;-94
2021/12/01 10:26:44;;;;;;;0.97;0.70;;;7.80;99.90;;;;;;4923887;29;20197;-92
2021/12/01 10:29:34;;;;;;;2.07;0.70;;;7.70;99.90;;;;;;4923672;29;20217;-95
2021/12/01 10:32:07;;;;;;;0.70;0.60;;;7.70;99.90;;;;;;4922385;29;20548;-94
2021/12/01 10:34:40;;;;;;;0.77;0.60;;;7.70;99.90;;;;;;4921439;29;20182;-94
2021/12/01 10:37:13;;;;;;;0.50;0.50;;;7.70;99.90;;;;;;4938461;29;20632;-93
2021/12/01 10:39:45;;;;;;;3.13;0.80;;;7.70;99.90;;;;;;4922413;29;20508;-93
2021/12/01 10:42:17;;;;;;;1.10;0.70;;;7.70;99.90;;;;;;4921210;29;20226;-91
2021/12/01 10:45:09;;;;;;;1.30;1.00;;;7.70;99.90;;;;;;4921395;29;20193;-92
2021/12/01 10:47:43;;;;;;;0.60;0.60;;;7.70;99.90;;;;;;4919256;29;20201;-91
2021/12/01 10:50:22;;;;;;;1.90;0.77;;;7.70;99.90;;;;;;4921171;29;20221;-90
2021/12/01 10:52:51;;;;;;;1.00;0.90;;;7.70;99.90;;;;;;4921466;29;20177;-90
2021/12/01 10:55:20;;;;;;;1.07;0.80;;;7.70;99.90;;;;;;4921276;29;20198;-92
2021/12/01 10:57:48;;;;;;;1.37;0.70;;;7.70;99.90;;;;;;4921206;29;20193;-94
2021/12/01 11:00:32;;;;;;;1.23;0.70;;;7.70;99.90;;;;;;4921379;29;20190;-94
2021/12/01 11:03:08;;;;;;;1.00;0.80;;;7.70;99.90;;;;;;4921266;29;20197;-91
2021/12/01 11:05:41;;;;;;;0.60;0.50;;;7.70;99.90;;;;;;4921423;29;20228;-92
2021/12/01 11:08:18;;;;;;;0.87;0.50;;;7.70;99.90;;;;;;4921239;29;20278;-92
2021/12/01 11:10:58;;;;;;;0.80;0.70;;;7.80;99.90;;;;;;4921075;29;20236;-92
2021/12/01 11:13:26;;;;;;;1.57;0.60;;;7.70;99.90;;;;;;4921241;29;20233;-94
2021/12/01 11:15:57;;;;;;;0.60;0.60;;;7.80;99.90;;;;;;4921357;29;20249;-94
2021/12/01 11:18:25;;;;;;;1.10;0.50;;;7.80;99.90;;;;;;4920930;29;20261;-92
2021/12/01 11:20:58;;;;;;;0.80;0.60;;;7.80;99.90;;;;;;4921193;29;20189;-91
2021/12/01 11:23:36;;;;;;;0.60;0.50;;;7.80;99.90;;;;;;4920861;29;20218;-93
2021/12/01 11:26:29;;;;;;;1.30;0.63;;;7.80;99.90;;;;;;4920987;29;20220;-92
2021/12/01 11:29:00;;;;;;;0.77;0.53;;;7.80;99.90;;;;;;4918749;29;20186;-92
2021/12/01 11:31:43;;;;;;;0.90;0.50;;;7.80;99.90;;;;;;4920913;29;20186;-91
2021/12/01 11:34:13;;;;;;;0.70;0.60;;;7.80;99.90;;;;;;4921088;29;20238;-92
2021/12/01 11:36:51;;;;;;;0.73;0.50;;;7.80;99.90;;;;;;4920793;29;20233;-91
2021/12/01 11:39:22;;;;;;;0.53;0.50;;;7.90;99.90;;;;;;4921011;29;20245;-93
2021/12/01 11:41:50;;;;;;;0.90;0.70;;;7.90;99.90;;;;;;4911603;29;20226;-92
2021/12/01 11:44:18;;;;;;;1.10;0.53;;;7.80;99.90;;;;;;4902176;29;20230;-92
2021/12/01 11:46:44;;;;;;;0.63;0.50;;;7.80;99.90;;;;;;4905323;29;20634;-91
2021/12/01 11:49:12;;;;;;;1.47;0.60;;;7.80;99.90;;;;;;4905222;29;20564;-92
2021/12/01 11:51:46;;;;;;;0.40;0.40;;;7.80;99.90;;;;;;4905677;29;20292;-91
2021/12/01 11:54:19;;;;;;;0.60;0.60;;;7.80;99.90;;;;;;4905587;29;20190;-93
2021/12/01 11:56:53;;;;;;;1.53;0.57;;;7.90;99.90;;;;;;4905678;29;20205;-91
2021/12/01 11:59:22;;;;;;;1.37;0.60;;;8.00;99.90;;;;;;4905401;29;20191;-92
2021/12/01 12:01:54;;;;;;;1.03;0.53;;;7.90;99.90;;;;;;4902400;29;20203;-93
2021/12/01 12:04:25;;;;;;;1.10;0.80;;;7.90;99.90;;;;;;4886440;29;20254;-91
2021/12/01 12:06:53;;;;;;;2.20;0.50;;;8.00;99.90;;;;;;4886751;29;20195;-91
2021/12/01 12:09:22;;;;;;;3.07;0.70;;;8.00;99.90;;;;;;4886594;29;20263;-92
2021/12/01 12:11:50;;;;;;;2.50;0.57;;;8.10;99.90;;;;;;4886541;29;20199;-89
2021/12/01 12:14:29;;;;;;;1.90;0.57;;;8.10;99.90;;;;;;4886487;29;20202;-92
2021/12/01 12:17:18;;;;;;;0.90;0.60;;;8.10;99.90;;;;;;4886413;29;20630;-92
2021/12/01 12:19:50;;;;;;;0.77;0.60;;;8.00;99.90;;;;;;4886431;29;20286;-93
2021/12/01 12:22:35;;;;;;;0.67;0.57;;;8.10;99.90;;;;;;4903136;29;20176;-91
2021/12/01 12:25:02;;;;;;;0.70;0.50;;;8.10;99.90;;;;;;4886129;29;20199;-92
2021/12/01 12:27:47;;;;;;;1.07;0.57;;;8.10;99.90;;;;;;4885930;29;20199;-93
2021/12/01 12:30:36;;;;;;;2.70;0.50;;;8.10;99.90;;;;;;4886104;29;20286;-92
2021/12/01 12:33:16;;;;;;;1.47;0.60;;;8.10;99.90;;;;;;4898119;29;20201;-94
2021/12/01 12:35:44;;;;;;;0.90;0.60;;;8.20;99.90;;;;;;4904668;29;20194;-94
2021/12/01 12:38:11;;;;;;;1.13;0.40;;;8.20;99.90;;;;;;4904633;29;20222;-92
2021/12/01 12:40:39;;;;;;;0.63;0.57;;;8.20;99.90;;;;;;4904718;29;20217;-89
2021/12/01 12:43:25;;;;;;;0.80;0.40;;;8.20;99.90;;;;;;4924242;29;20283;-96
2021/12/01 12:46:07;;;;;;;0.80;0.60;;;8.30;99.90;;;;;;4925623;29;20194;-93
2021/12/01 12:48:39;;;;;;;2.07;0.50;;;8.30;99.90;;;;;;4923907;29;20178;-91
2021/12/01 12:51:11;;;;;;;0.60;0.50;;;8.30;99.90;;;;;;4923211;29;20225;-90
2021/12/01 12:54:00;;;;;;;0.57;0.50;;;8.30;99.90;;;;;;4925497;29;20178;-91
2021/12/01 12:56:28;;;;;;;0.40;0.40;;;8.30;99.90;;;;;;4922318;29;20637;-91
2021/12/01 12:59:33;;;;;;;1.27;0.57;;;8.30;99.90;;;;;;4923565;29;20225;-91
2021/12/01 13:02:07;;;;;;;0.50;0.40;;;8.30;99.90;;;;;;4866024;29;20662;-92
2021/12/01 13:04:48;;;;;;;0.40;0.40;;;8.30;99.90;;;;;;4866317;29;20195;-92
2021/12/01 13:07:43;;;;;;;1.27;0.50;;;8.30;99.90;;;;;;4891289;29;20195;-93
2021/12/01 13:10:28;;;;;;;2.63;0.60;;;8.30;99.90;;;;;;4904707;29;20225;-93
2021/12/01 13:13:00;;;;;;;1.10;0.60;;;8.30;99.90;;;;;;4904508;29;20253;-93
2021/12/01 13:15:43;;;;;;;0.50;0.43;;;8.40;99.90;;;;;;4904905;29;20243;-92
2021/12/01 13:18:18;;;;;;;0.60;0.43;;;8.40;99.90;;;;;;4903815;29;20182;-93
2021/12/01 13:20:59;;;;;;;0.60;0.40;;;8.40;99.90;;;;;;4904114;29;20569;-93
2021/12/01 13:23:45;;;;;;;4.53;0.70;;;8.40;99.90;;;;;;4903799;29;20773;-94
2021/12/01 13:26:17;;;;;;;0.67;0.40;;;8.30;99.90;;;;;;4904304;29;20190;-92
2021/12/01 13:29:12;;;;;;;0.40;0.40;;;8.30;99.90;;;;;;4903824;29;20618;-94
2021/12/01 13:31:46;;;;;;;0.53;0.33;;;8.40;99.90;;;;;;4905379;29;20194;-93
2021/12/01 13:34:23;;;;;;;1.90;0.70;;;8.30;99.90;;;;;;4922850;29;20621;-93
2021/12/01 13:36:50;;;;;;;0.80;0.50;;;8.30;99.90;;;;;;4922575;29;20229;-92
2021/12/01 13:39:20;;;;;;;0.47;0.47;;;8.30;99.90;;;;;;4922466;29;20194;-93
2021/12/01 13:41:57;;;;;;;1.80;0.43;;;8.20;99.90;;;;;;4913786;29;20240;-92
2021/12/01 13:44:34;;;;;;;1.13;0.50;;;8.30;99.90;;;;;;4903814;29;20287;-93
2021/12/01 13:47:19;;;;;;;0.53;0.50;;;8.20;99.90;;;;;;4903965;29;20193;-92
2021/12/01 13:49:48;;;;;;;1.37;0.40;;;8.20;99.90;;;;;;4904033;29;20258;-93
2021/12/01 13:52:34;;;;;;;1.20;0.40;;;8.30;99.90;;;;;;4903832;29;20186;-91
2021/12/01 13:55:23;;;;;;;0.70;0.50;;;8.30;99.90;;;;;;4903559;29;20191;-93
2021/12/01 13:57:50;;;;;;;1.37;0.40;;;8.30;99.90;;;;;;4903473;29;20622;-90
2021/12/01 14:00:49;;;;;;;1.60;0.40;;;8.20;99.90;;;;;;4903179;29;20223;-90
2021/12/01 14:03:17;;;;;;;0.40;0.40;;;8.20;99.90;;;;;;4902883;29;20195;-90
2021/12/01 14:05:50;;;;;;;1.43;0.60;;;8.10;99.90;;;;;;4903084;29;20285;-91
2021/12/01 14:08:28;;;;;;;2.70;0.60;;;8.00;99.90;;;;;;4919915;29;20637;-93
2021/12/01 14:11:27;;;;;;;0.93;0.50;;;8.00;99.90;;;;;;4903490;29;20226;-91
2021/12/01 14:13:55;;;;;;;2.80;0.60;;;7.90;99.90;;;;;;4903302;29;20187;-90
2021/12/01 14:16:27;;;;;;;0.70;0.57;;;7.90;99.90;;;;;;4903708;29;20238;-90
2021/12/01 14:18:53;;;;;;;0.97;0.60;;;7.80;99.90;;;;;;4903454;29;20191;-91
2021/12/01 14:21:21;;;;;;;1.40;0.70;;;7.80;99.90;;;;;;4904034;29;20697;-90
2021/12/01 14:23:50;;;;;;;0.40;0.40;;;7.80;99.90;;;;;;4903378;29;20214;-94
2021/12/01 14:26:17;;;;;;;1.07;0.50;;;7.80;99.90;;;;;;4902880;29;20191;-92
2021/12/01 14:28:44;;;;;;;2.17;0.50;;;7.80;99.90;;;;;;4902836;29;20594;-92
2021/12/01 14:31:18;;;;;;;0.60;0.50;;;7.80;99.90;;;;;;4903001;29;20206;-91
2021/12/01 14:34:04;;;;;;;1.87;0.70;;;7.70;99.90;;;;;;4902659;29;20342;-90
2021/12/01 14:36:30;;;;;;;0.53;0.40;;;7.70;99.90;;;;;;4902476;29;20195;-89
2021/12/01 14:38:56;;;;;;;4.47;0.63;;;7.70;99.90;;;;;;4902397;29;20190;-89
2021/12/01 14:41:22;;;;;;;1.57;0.50;;;7.70;99.90;;;;;;4902535;29;20226;-90
2021/12/01 14:44:00;;;;;;;1.13;0.50;;;7.80;99.90;;;;;;4902670;29;20233;-93
2021/12/01 14:46:30;;;;;;;1.53;0.50;;;7.70;99.90;;;;;;4902977;29;20183;-93
2021/12/01 14:49:11;;;;;;;1.43;0.50;;;7.80;99.90;;;;;;4902967;29;20198;-93
2021/12/01 14:51:41;;;;;;;0.80;0.60;;;7.70;99.90;;;;;;4902574;29;20193;-94
2021/12/01 14:54:16;;;;;;;1.57;0.60;;;7.70;99.90;;;;;;4902738;29;20179;-92
2021/12/01 14:56:57;;;;;;;0.97;0.77;;;7.70;99.90;;;;;;4902705;29;20193;-93
2021/12/01 14:59:24;;;;;;;1.63;0.60;;;7.80;99.90;;;;;;4910809;29;20199;-94
2021/12/01 15:02:29;;;;;;;2.43;0.60;;;7.70;99.90;;;;;;4902494;29;20693;-93
2021/12/01 15:05:08;;;;;;;6.47;0.60;;;7.70;99.90;;;;;;4863561;29;20289;-93
2021/12/01 15:07:48;;;;;;;3.40;0.87;;;7.70;99.90;;;;;;4879515;29;20543;-93
2021/12/01 15:10:35;;;;;;;1.33;0.70;;;7.70;99.90;;;;;;4876741;29;20230;-93
2021/12/01 15:13:12;;;;;;;1.20;0.60;;;7.80;99.90;;;;;;4883125;29;20191;-93
2021/12/01 15:15:42;;;;;;;1.40;0.70;;;7.80;99.90;;;;;;4883832;29;20614;-93
2021/12/01 15:18:30;;;;;;;1.20;0.70;;;7.80;99.90;;;;;;4883263;29;20194;-92
2021/12/01 15:21:14;;;;;;;2.43;0.70;;;7.80;99.90;;;;;;4887972;29;20193;-91
2021/12/01 15:24:01;;;;;;;2.30;0.60;;;7.90;99.90;;;;;;4889736;29;20615;-93
2021/12/01 15:26:34;;;;;;;2.60;0.97;;;7.90;99.90;;;;;;4889646;29;20182;-91
2021/12/01 15:29:06;;;;;;;2.77;0.90;;;7.90;99.90;;;;;;4889655;29;20196;-93
2021/12/01 15:31:35;;;;;;;1.50;0.90;;;7.90;99.90;;;;;;4889536;29;20619;-92
2021/12/01 15:34:02;;;;;;;2.10;0.80;;;7.90;99.90;;;;;;4891749;29;20556;-94
2021/12/01 15:36:28;;;;;;;2.87;0.93;;;7.90;99.90;;;;;;4908357;29;20240;-93
2021/12/01 15:38:54;;;;;;;5.43;0.87;;;7.90;99.90;;;;;;4908233;29;20223;-92
2021/12/01 15:41:21;;;;;;;2.83;0.93;;;8.00;99.90;;;;;;4907992;29;20312;-94
2021/12/01 15:43:51;;;;;;;2.07;1.00;;;8.00;99.90;;;;;;4908724;29;20701;-94
2021/12/01 15:46:17;;;;;;;2.57;1.00;;;8.00;99.90;;;;;;4908314;29;20644;-93
2021/12/01 15:48:43;;;;;;;3.43;1.10;;;8.00;99.90;;;;;;4908112;29;20190;-93
2021/12/01 15:51:09;;;;;;;6.13;1.03;;;7.90;99.90;;;;;;4908191;29;20231;-93
2021/12/01 15:53:37;;;;;;;1.50;0.80;;;7.90;99.90;;;;;;4908399;29;20653;-93
2021/12/01 15:56:03;;;;;;;6.40;1.10;;;7.90;99.90;;;;;;4908243;29;20183;-94